sensor_id;sensor_type;location;lat;lon;timestamp;pressure;altitude;pressure_sealevel;temperature
73673;BMP280;61972;19.480;-99.240;2023-05-19T00:00:32;77558.38;;;28.42
73673;BMP280;61972;19.480;-99.240;2023-05-19T00:03:02;77565.19;;;28.41
73673;BMP280;61972;19.480;-99.240;2023-05-19T00:05:29;77573.47;;;28.39
73673;BMP280;61972;19.480;-99.240;2023-05-19T00:07:58;77571.28;;;28.37
73673;BMP280;61972;19.480;-99.240;2023-05-19T00:10:26;77578.03;;;28.36
73673;BMP280;61972;19.480;-99.240;2023-05-19T00:12:57;77575.28;;;28.34
73673;BMP280;61972;19.480;-99.240;2023-05-19T00:15:23;77581.50;;;28.32
73673;BMP280;61972;19.480;-99.240;2023-05-19T00:17:52;77596.59;;;28.29
73673;BMP280;61972;19.480;-99.240;2023-05-19T00:20:20;77607.50;;;28.27
73673;BMP280;61972;19.480;-99.240;2023-05-19T00:22:47;77615.25;;;28.24
73673;BMP280;61972;19.480;-99.240;2023-05-19T00:25:13;77622.44;;;28.21
73673;BMP280;61972;19.480;-99.240;2023-05-19T00:27:39;77630.72;;;28.19
73673;BMP280;61972;19.480;-99.240;2023-05-19T00:30:06;77640.53;;;28.16
73673;BMP280;61972;19.480;-99.240;2023-05-19T00:32:32;77650.50;;;28.16
73673;BMP280;61972;19.480;-99.240;2023-05-19T00:34:59;77708.13;;;28.13
73673;BMP280;61972;19.480;-99.240;2023-05-19T00:37:25;77730.69;;;28.12
73673;BMP280;61972;19.480;-99.240;2023-05-19T00:39:52;77687.97;;;28.09
73673;BMP280;61972;19.480;-99.240;2023-05-19T00:42:19;77676.75;;;28.06
73673;BMP280;61972;19.480;-99.240;2023-05-19T00:44:45;77668.72;;;28.03
73673;BMP280;61972;19.480;-99.240;2023-05-19T00:47:12;77681.72;;;28.01
73673;BMP280;61972;19.480;-99.240;2023-05-19T00:49:38;77693.59;;;27.97
73673;BMP280;61972;19.480;-99.240;2023-05-19T00:52:05;77701.88;;;27.95
73673;BMP280;61972;19.480;-99.240;2023-05-19T00:54:33;77697.03;;;27.93
73673;BMP280;61972;19.480;-99.240;2023-05-19T00:56:59;77698.56;;;27.92
73673;BMP280;61972;19.480;-99.240;2023-05-19T00:59:26;77692.19;;;27.91
73673;BMP280;61972;19.480;-99.240;2023-05-19T01:01:52;77698.41;;;27.89
73673;BMP280;61972;19.480;-99.240;2023-05-19T01:04:19;77689.97;;;27.89
73673;BMP280;61972;19.480;-99.240;2023-05-19T01:06:49;77700.91;;;27.87
73673;BMP280;61972;19.480;-99.240;2023-05-19T01:09:22;77707.66;;;27.86
73673;BMP280;61972;19.480;-99.240;2023-05-19T01:11:49;77708.59;;;27.84
73673;BMP280;61972;19.480;-99.240;2023-05-19T01:14:15;77710.69;;;27.84
73673;BMP280;61972;19.480;-99.240;2023-05-19T01:25:13;77775.34;;;27.76
73673;BMP280;61972;19.480;-99.240;2023-05-19T01:30:28;77798.25;;;27.73
73673;BMP280;61972;19.480;-99.240;2023-05-19T01:33:00;77812.88;;;27.72
73673;BMP280;61972;19.480;-99.240;2023-05-19T01:35:27;77834.31;;;27.69
73673;BMP280;61972;19.480;-99.240;2023-05-19T01:37:56;77836.38;;;27.69
73673;BMP280;61972;19.480;-99.240;2023-05-19T01:40:24;77829.47;;;27.67
73673;BMP280;61972;19.480;-99.240;2023-05-19T01:42:52;77830.97;;;27.66
73673;BMP280;61972;19.480;-99.240;2023-05-19T01:45:26;77836.63;;;27.64
73673;BMP280;61972;19.480;-99.240;2023-05-19T01:47:58;77851.28;;;27.63
73673;BMP280;61972;19.480;-99.240;2023-05-19T01:50:25;77850.16;;;27.62
73673;BMP280;61972;19.480;-99.240;2023-05-19T01:52:51;77854.84;;;27.62
73673;BMP280;61972;19.480;-99.240;2023-05-19T01:55:18;77865.19;;;27.59
73673;BMP280;61972;19.480;-99.240;2023-05-19T02:13:54;77898.28;;;27.51
73673;BMP280;61972;19.480;-99.240;2023-05-19T02:16:26;77902.44;;;27.50
73673;BMP280;61972;19.480;-99.240;2023-05-19T02:18:56;77908.63;;;27.48
73673;BMP280;61972;19.480;-99.240;2023-05-19T02:21:26;77906.97;;;27.47
73673;BMP280;61972;19.480;-99.240;2023-05-19T02:23:52;77921.59;;;27.46
73673;BMP280;61972;19.480;-99.240;2023-05-19T02:26:21;77919.34;;;27.44
73673;BMP280;61972;19.480;-99.240;2023-05-19T02:28:50;77925.00;;;27.42
73673;BMP280;61972;19.480;-99.240;2023-05-19T02:31:16;77928.00;;;27.40
73673;BMP280;61972;19.480;-99.240;2023-05-19T02:33:42;77945.84;;;27.39
73673;BMP280;61972;19.480;-99.240;2023-05-19T02:36:09;77933.66;;;27.38
73673;BMP280;61972;19.480;-99.240;2023-05-19T02:38:35;77928.84;;;27.36
73673;BMP280;61972;19.480;-99.240;2023-05-19T02:41:01;77934.47;;;27.33
73673;BMP280;61972;19.480;-99.240;2023-05-19T02:43:27;77932.78;;;27.32
73673;BMP280;61972;19.480;-99.240;2023-05-19T02:45:55;77931.13;;;27.30
73673;BMP280;61972;19.480;-99.240;2023-05-19T02:48:21;77924.75;;;27.29
73673;BMP280;61972;19.480;-99.240;2023-05-19T02:50:47;77923.66;;;27.28
73673;BMP280;61972;19.480;-99.240;2023-05-19T02:53:13;77918.78;;;27.26
73673;BMP280;61972;19.480;-99.240;2023-05-19T02:55:39;77928.19;;;27.25
73673;BMP280;61972;19.480;-99.240;2023-05-19T02:58:05;77928.56;;;27.23
73673;BMP280;61972;19.480;-99.240;2023-05-19T03:00:31;77928.56;;;27.23
73673;BMP280;61972;19.480;-99.240;2023-05-19T03:02:58;77926.91;;;27.22
73673;BMP280;61972;19.480;-99.240;2023-05-19T03:05:27;77925.78;;;27.21
73673;BMP280;61972;19.480;-99.240;2023-05-19T03:07:55;77937.25;;;27.19
73673;BMP280;61972;19.480;-99.240;2023-05-19T03:10:21;77938.16;;;27.18
73673;BMP280;61972;19.480;-99.240;2023-05-19T03:12:47;77935.97;;;27.16
73673;BMP280;61972;19.480;-99.240;2023-05-19T03:15:13;77945.34;;;27.14
73673;BMP280;61972;19.480;-99.240;2023-05-19T03:17:39;77941.59;;;27.13
73673;BMP280;61972;19.480;-99.240;2023-05-19T03:20:06;77942.00;;;27.11
73673;BMP280;61972;19.480;-99.240;2023-05-19T03:22:32;77942.00;;;27.11
73673;BMP280;61972;19.480;-99.240;2023-05-19T03:24:58;77946.13;;;27.10
73673;BMP280;61972;19.480;-99.240;2023-05-19T03:27:25;77935.47;;;27.08
73673;BMP280;61972;19.480;-99.240;2023-05-19T03:29:51;77930.22;;;27.08
73673;BMP280;61972;19.480;-99.240;2023-05-19T03:32:18;77930.78;;;27.08
73673;BMP280;61972;19.480;-99.240;2023-05-19T03:34:44;77924.41;;;27.07
73673;BMP280;61972;19.480;-99.240;2023-05-19T03:37:10;77925.38;;;27.06
73673;BMP280;61972;19.480;-99.240;2023-05-19T03:39:37;77926.31;;;27.04
73673;BMP280;61972;19.480;-99.240;2023-05-19T03:42:06;77928.94;;;27.04
73673;BMP280;61972;19.480;-99.240;2023-05-19T03:44:32;77933.63;;;27.04
73673;BMP280;61972;19.480;-99.240;2023-05-19T03:46:58;77935.53;;;27.01
73673;BMP280;61972;19.480;-99.240;2023-05-19T03:49:24;77949.03;;;26.99
73673;BMP280;61972;19.480;-99.240;2023-05-19T03:51:51;77936.31;;;26.97
73673;BMP280;61972;19.480;-99.240;2023-05-19T03:54:17;77940.47;;;26.95
73673;BMP280;61972;19.480;-99.240;2023-05-19T03:56:43;77937.13;;;26.92
73673;BMP280;61972;19.480;-99.240;2023-05-19T03:59:09;77936.00;;;26.91
73673;BMP280;61972;19.480;-99.240;2023-05-19T04:01:36;77942.19;;;26.90
73673;BMP280;61972;19.480;-99.240;2023-05-19T04:04:03;77942.00;;;26.87
73673;BMP280;61972;19.480;-99.240;2023-05-19T04:06:29;77944.47;;;26.85
73673;BMP280;61972;19.480;-99.240;2023-05-19T04:08:55;77937.56;;;26.83
73673;BMP280;61972;19.480;-99.240;2023-05-19T04:11:21;77942.81;;;26.83
73673;BMP280;61972;19.480;-99.240;2023-05-19T04:13:47;77952.19;;;26.82
73673;BMP280;61972;19.480;-99.240;2023-05-19T04:16:16;77946.94;;;26.82
73673;BMP280;61972;19.480;-99.240;2023-05-19T04:18:42;77946.38;;;26.82
73673;BMP280;61972;19.480;-99.240;2023-05-19T04:21:10;77937.38;;;26.81
73673;BMP280;61972;19.480;-99.240;2023-05-19T04:23:36;77940.00;;;26.81
73673;BMP280;61972;19.480;-99.240;2023-05-19T04:26:03;77942.06;;;26.80
73673;BMP280;61972;19.480;-99.240;2023-05-19T04:28:31;77940.97;;;26.79
73673;BMP280;61972;19.480;-99.240;2023-05-19T04:30:58;77949.38;;;26.80
73673;BMP280;61972;19.480;-99.240;2023-05-19T04:33:24;77946.22;;;26.79
73673;BMP280;61972;19.480;-99.240;2023-05-19T04:35:50;77948.84;;;26.79
73673;BMP280;61972;19.480;-99.240;2023-05-19T04:38:16;77945.50;;;26.76
73673;BMP280;61972;19.480;-99.240;2023-05-19T04:40:44;77946.06;;;26.76
73673;BMP280;61972;19.480;-99.240;2023-05-19T04:43:10;77950.72;;;26.76
73673;BMP280;61972;19.480;-99.240;2023-05-19T04:45:36;77953.34;;;26.76
73673;BMP280;61972;19.480;-99.240;2023-05-19T04:48:02;77945.50;;;26.76
73673;BMP280;61972;19.480;-99.240;2023-05-19T04:50:29;77935.94;;;26.74
73673;BMP280;61972;19.480;-99.240;2023-05-19T04:52:56;77933.88;;;26.75
73673;BMP280;61972;19.480;-99.240;2023-05-19T04:55:29;77934.81;;;26.73
73673;BMP280;61972;19.480;-99.240;2023-05-19T04:57:55;77932.75;;;26.74
73673;BMP280;61972;19.480;-99.240;2023-05-19T05:00:24;77926.97;;;26.73
73673;BMP280;61972;19.480;-99.240;2023-05-19T05:02:56;77934.28;;;26.73
73673;BMP280;61972;19.480;-99.240;2023-05-19T05:05:32;77939.53;;;26.73
73673;BMP280;61972;19.480;-99.240;2023-05-19T05:07:59;77937.84;;;26.71
73673;BMP280;61972;19.480;-99.240;2023-05-19T05:10:25;77959.38;;;26.72
73673;BMP280;61972;19.480;-99.240;2023-05-19T05:12:52;77952.06;;;26.72
73673;BMP280;61972;19.480;-99.240;2023-05-19T05:15:18;77954.69;;;26.72
73673;BMP280;61972;19.480;-99.240;2023-05-19T05:17:45;77958.81;;;26.71
73673;BMP280;61972;19.480;-99.240;2023-05-19T05:20:12;77966.13;;;26.71
73673;BMP280;61972;19.480;-99.240;2023-05-19T05:22:40;77971.38;;;26.71
73673;BMP280;61972;19.480;-99.240;2023-05-19T05:25:07;77971.38;;;26.71
73673;BMP280;61972;19.480;-99.240;2023-05-19T05:27:34;77970.28;;;26.70
73673;BMP280;61972;19.480;-99.240;2023-05-19T05:30:01;77970.28;;;26.70
73673;BMP280;61972;19.480;-99.240;2023-05-19T05:32:27;77973.81;;;26.68
73673;BMP280;61972;19.480;-99.240;2023-05-19T05:34:54;77973.25;;;26.68
73673;BMP280;61972;19.480;-99.240;2023-05-19T05:37:20;77972.69;;;26.67
73673;BMP280;61972;19.480;-99.240;2023-05-19T05:39:49;77972.69;;;26.67
73673;BMP280;61972;19.480;-99.240;2023-05-19T05:42:15;77973.25;;;26.68
73673;BMP280;61972;19.480;-99.240;2023-05-19T05:44:41;77971.03;;;26.66
73673;BMP280;61972;19.480;-99.240;2023-05-19T05:47:07;77965.22;;;26.65
73673;BMP280;61972;19.480;-99.240;2023-05-19T05:49:34;77965.78;;;26.66
73673;BMP280;61972;19.480;-99.240;2023-05-19T05:52:04;77969.91;;;26.65
73673;BMP280;61972;19.480;-99.240;2023-05-19T05:54:31;77980.78;;;26.63
73673;BMP280;61972;19.480;-99.240;2023-05-19T05:56:58;77985.09;;;26.64
73673;BMP280;61972;19.480;-99.240;2023-05-19T05:59:30;77983.41;;;26.63
73673;BMP280;61972;19.480;-99.240;2023-05-19T06:01:58;77983.41;;;26.63
73673;BMP280;61972;19.480;-99.240;2023-05-19T06:04:24;77982.28;;;26.62
73673;BMP280;61972;19.480;-99.240;2023-05-19T06:06:50;77991.66;;;26.61
73673;BMP280;61972;19.480;-99.240;2023-05-19T06:09:17;77985.84;;;26.60
73673;BMP280;61972;19.480;-99.240;2023-05-19T06:11:43;77987.91;;;26.60
73673;BMP280;61972;19.480;-99.240;2023-05-19T06:14:09;77982.69;;;26.60
73673;BMP280;61972;19.480;-99.240;2023-05-19T06:16:38;77975.75;;;26.58
73673;BMP280;61972;19.480;-99.240;2023-05-19T06:19:04;77972.03;;;26.57
73673;BMP280;61972;19.480;-99.240;2023-05-19T06:21:30;77968.88;;;26.56
73673;BMP280;61972;19.480;-99.240;2023-05-19T06:23:56;77959.88;;;26.55
73673;BMP280;61972;19.480;-99.240;2023-05-19T06:26:22;77959.31;;;26.55
73673;BMP280;61972;19.480;-99.240;2023-05-19T06:28:49;77957.63;;;26.53
73673;BMP280;61972;19.480;-99.240;2023-05-19T06:31:15;77956.53;;;26.52
73673;BMP280;61972;19.480;-99.240;2023-05-19T06:33:41;77956.53;;;26.52
73673;BMP280;61972;19.480;-99.240;2023-05-19T06:36:07;77955.41;;;26.51
73673;BMP280;61972;19.480;-99.240;2023-05-19T06:38:34;77950.16;;;26.51
73673;BMP280;61972;19.480;-99.240;2023-05-19T06:41:00;77951.66;;;26.50
73673;BMP280;61972;19.480;-99.240;2023-05-19T06:43:26;77955.81;;;26.49
73673;BMP280;61972;19.480;-99.240;2023-05-19T06:45:53;77957.28;;;26.48
73673;BMP280;61972;19.480;-99.240;2023-05-19T06:48:19;77957.28;;;26.48
73673;BMP280;61972;19.480;-99.240;2023-05-19T06:50:45;77948.31;;;26.47
73673;BMP280;61972;19.480;-99.240;2023-05-19T06:53:11;77947.75;;;26.47
73673;BMP280;61972;19.480;-99.240;2023-05-19T06:55:37;77945.13;;;26.47
73673;BMP280;61972;19.480;-99.240;2023-05-19T06:58:04;77940.84;;;26.45
73673;BMP280;61972;19.480;-99.240;2023-05-19T07:00:30;77938.22;;;26.45
73673;BMP280;61972;19.480;-99.240;2023-05-19T07:02:56;77946.50;;;26.43
73673;BMP280;61972;19.480;-99.240;2023-05-19T07:05:22;77945.38;;;26.42
73673;BMP280;61972;19.480;-99.240;2023-05-19T07:07:48;77940.13;;;26.42
73673;BMP280;61972;19.480;-99.240;2023-05-19T07:10:14;77928.53;;;26.41
73673;BMP280;61972;19.480;-99.240;2023-05-19T07:12:40;77927.41;;;26.40
73673;BMP280;61972;19.480;-99.240;2023-05-19T07:15:06;77916.94;;;26.40
73673;BMP280;61972;19.480;-99.240;2023-05-19T07:17:32;77907.97;;;26.39
73673;BMP280;61972;19.480;-99.240;2023-05-19T07:19:59;77914.69;;;26.38
73673;BMP280;61972;19.480;-99.240;2023-05-19T07:22:29;77917.72;;;26.36
73673;BMP280;61972;19.480;-99.240;2023-05-19T07:25:27;77911.94;;;26.35
73673;BMP280;61972;19.480;-99.240;2023-05-19T07:28:04;77910.81;;;26.34
73673;BMP280;61972;19.480;-99.240;2023-05-19T07:30:30;77910.22;;;26.34
73673;BMP280;61972;19.480;-99.240;2023-05-19T07:32:56;77906.50;;;26.33
73673;BMP280;61972;19.480;-99.240;2023-05-19T07:35:22;77902.78;;;26.32
73673;BMP280;61972;19.480;-99.240;2023-05-19T07:37:48;77902.22;;;26.31
73673;BMP280;61972;19.480;-99.240;2023-05-19T07:40:15;77900.00;;;26.29
73673;BMP280;61972;19.480;-99.240;2023-05-19T07:42:41;77901.47;;;26.28
73673;BMP280;61972;19.480;-99.240;2023-05-19T07:45:09;77903.56;;;26.28
73673;BMP280;61972;19.480;-99.240;2023-05-19T07:47:36;77902.97;;;26.27
73673;BMP280;61972;19.480;-99.240;2023-05-19T07:50:02;77896.09;;;26.26
73673;BMP280;61972;19.480;-99.240;2023-05-19T07:52:29;77896.09;;;26.26
73673;BMP280;61972;19.480;-99.240;2023-05-19T07:54:55;77894.97;;;26.25
73673;BMP280;61972;19.480;-99.240;2023-05-19T07:57:21;77888.06;;;26.23
73673;BMP280;61972;19.480;-99.240;2023-05-19T07:59:49;77892.75;;;26.23
73673;BMP280;61972;19.480;-99.240;2023-05-19T08:02:15;77901.53;;;26.21
73673;BMP280;61972;19.480;-99.240;2023-05-19T08:05:29;77902.50;;;26.19
73673;BMP280;61972;19.480;-99.240;2023-05-19T08:07:55;77899.31;;;26.19
73673;BMP280;61972;19.480;-99.240;2023-05-19T08:10:22;77905.09;;;26.19
73673;BMP280;61972;19.480;-99.240;2023-05-19T08:12:48;77908.13;;;26.17
73673;BMP280;61972;19.480;-99.240;2023-05-19T08:15:14;77908.13;;;26.17
73673;BMP280;61972;19.480;-99.240;2023-05-19T08:17:43;77909.63;;;26.16
73673;BMP280;61972;19.480;-99.240;2023-05-19T08:20:14;77895.41;;;26.15
73673;BMP280;61972;19.480;-99.240;2023-05-19T08:22:43;77899.53;;;26.14
73673;BMP280;61972;19.480;-99.240;2023-05-19T08:25:09;77904.78;;;26.14
73673;BMP280;61972;19.480;-99.240;2023-05-19T08:27:36;77903.66;;;26.13
73673;BMP280;61972;19.480;-99.240;2023-05-19T08:30:02;77899.38;;;26.12
73673;BMP280;61972;19.480;-99.240;2023-05-19T08:32:28;77907.22;;;26.12
73673;BMP280;61972;19.480;-99.240;2023-05-19T08:34:54;77903.50;;;26.11
73673;BMP280;61972;19.480;-99.240;2023-05-19T08:37:21;77901.81;;;26.09
73673;BMP280;61972;19.480;-99.240;2023-05-19T08:39:47;77900.69;;;26.08
73673;BMP280;61972;19.480;-99.240;2023-05-19T08:42:13;77899.56;;;26.07
73673;BMP280;61972;19.480;-99.240;2023-05-19T08:44:40;77893.63;;;26.04
73673;BMP280;61972;19.480;-99.240;2023-05-19T08:47:08;77899.97;;;26.05
73673;BMP280;61972;19.480;-99.240;2023-05-19T08:49:45;77901.06;;;26.06
73673;BMP280;61972;19.480;-99.240;2023-05-19T08:52:26;77897.53;;;26.08
73673;BMP280;61972;19.480;-99.240;2023-05-19T08:55:08;77907.06;;;26.09
73673;BMP280;61972;19.480;-99.240;2023-05-19T08:57:35;77911.91;;;26.11
73673;BMP280;61972;19.480;-99.240;2023-05-19T09:00:03;77908.34;;;26.13
73673;BMP280;61972;19.480;-99.240;2023-05-19T09:02:40;77903.66;;;26.13
73673;BMP280;61972;19.480;-99.240;2023-05-19T09:05:07;77902.69;;;26.15
73673;BMP280;61972;19.480;-99.240;2023-05-19T09:07:38;77912.22;;;26.16
73673;BMP280;61972;19.480;-99.240;2023-05-19T09:10:14;77919.00;;;26.15
73673;BMP280;61972;19.480;-99.240;2023-05-19T09:12:50;77929.06;;;26.17
73673;BMP280;61972;19.480;-99.240;2023-05-19T09:15:26;77924.38;;;26.18
73673;BMP280;61972;19.480;-99.240;2023-05-19T09:18:09;77915.97;;;26.17
73673;BMP280;61972;19.480;-99.240;2023-05-19T09:20:41;77915.97;;;26.17
73673;BMP280;61972;19.480;-99.240;2023-05-19T09:23:15;77914.47;;;26.18
73673;BMP280;61972;19.480;-99.240;2023-05-19T09:25:49;77920.81;;;26.19
73673;BMP280;61972;19.480;-99.240;2023-05-19T09:28:26;77915.03;;;26.19
73673;BMP280;61972;19.480;-99.240;2023-05-19T09:31:06;77908.66;;;26.18
73673;BMP280;61972;19.480;-99.240;2023-05-19T09:33:41;77907.72;;;26.19
73673;BMP280;61972;19.480;-99.240;2023-05-19T09:36:08;77909.25;;;26.18
73673;BMP280;61972;19.480;-99.240;2023-05-19T09:38:36;77913.34;;;26.17
73673;BMP280;61972;19.480;-99.240;2023-05-19T09:41:04;77911.88;;;26.18
73673;BMP280;61972;19.480;-99.240;2023-05-19T09:43:32;77910.16;;;26.17
73673;BMP280;61972;19.480;-99.240;2023-05-19T09:46:08;77914.84;;;26.16
73673;BMP280;61972;19.480;-99.240;2023-05-19T09:48:37;77912.22;;;26.16
73673;BMP280;61972;19.480;-99.240;2023-05-19T09:51:07;77911.69;;;26.16
73673;BMP280;61972;19.480;-99.240;2023-05-19T09:53:36;77913.75;;;26.15
73673;BMP280;61972;19.480;-99.240;2023-05-19T09:56:03;77916.91;;;26.16
73673;BMP280;61972;19.480;-99.240;2023-05-19T09:58:33;77916.91;;;26.16
73673;BMP280;61972;19.480;-99.240;2023-05-19T10:01:00;77913.75;;;26.15
73673;BMP280;61972;19.480;-99.240;2023-05-19T10:03:27;77915.78;;;26.15
73673;BMP280;61972;19.480;-99.240;2023-05-19T10:05:53;77919.53;;;26.16
73673;BMP280;61972;19.480;-99.240;2023-05-19T10:08:21;77925.72;;;26.14
73673;BMP280;61972;19.480;-99.240;2023-05-19T10:10:48;77923.09;;;26.14
73673;BMP280;61972;19.480;-99.240;2023-05-19T10:13:15;77928.34;;;26.14
73673;BMP280;61972;19.480;-99.240;2023-05-19T10:15:44;77929.84;;;26.13
73673;BMP280;61972;19.480;-99.240;2023-05-19T10:18:13;77927.78;;;26.14
73673;BMP280;61972;19.480;-99.240;2023-05-19T10:20:41;77929.84;;;26.13
73673;BMP280;61972;19.480;-99.240;2023-05-19T10:23:08;77928.72;;;26.12
73673;BMP280;61972;19.480;-99.240;2023-05-19T10:25:35;77933.97;;;26.12
73673;BMP280;61972;19.480;-99.240;2023-05-19T10:28:10;77927.06;;;26.11
73673;BMP280;61972;19.480;-99.240;2023-05-19T10:30:40;77934.34;;;26.10
73673;BMP280;61972;19.480;-99.240;2023-05-19T10:33:11;77936.41;;;26.10
73673;BMP280;61972;19.480;-99.240;2023-05-19T10:38:34;77935.84;;;26.09
73673;BMP280;61972;19.480;-99.240;2023-05-19T10:41:10;77936.81;;;26.08
73673;BMP280;61972;19.480;-99.240;2023-05-19T10:46:17;77948.19;;;26.06
73673;BMP280;61972;19.480;-99.240;2023-05-19T10:48:47;77950.81;;;26.06
73673;BMP280;61972;19.480;-99.240;2023-05-19T10:51:14;77949.72;;;26.05
73673;BMP280;61972;19.480;-99.240;2023-05-19T10:53:41;77951.22;;;26.04
73673;BMP280;61972;19.480;-99.240;2023-05-19T10:56:11;77950.66;;;26.03
73673;BMP280;61972;19.480;-99.240;2023-05-19T11:02:05;77954.22;;;26.02
73673;BMP280;61972;19.480;-99.240;2023-05-19T11:05:05;77957.22;;;26.00
73673;BMP280;61972;19.480;-99.240;2023-05-19T11:07:32;77946.75;;;26.00
73673;BMP280;61972;19.480;-99.240;2023-05-19T11:10:05;77955.56;;;25.98
73673;BMP280;61972;19.480;-99.240;2023-05-19T11:12:42;77955.56;;;25.98
73673;BMP280;61972;19.480;-99.240;2023-05-19T11:15:16;77954.44;;;25.97
73673;BMP280;61972;19.480;-99.240;2023-05-19T11:17:47;77953.88;;;25.97
73673;BMP280;61972;19.480;-99.240;2023-05-19T11:20:27;77952.75;;;25.96
73673;BMP280;61972;19.480;-99.240;2023-05-19T11:23:32;77962.13;;;25.95
73673;BMP280;61972;19.480;-99.240;2023-05-19T11:26:01;77962.69;;;25.95
73673;BMP280;61972;19.480;-99.240;2023-05-19T11:28:28;77959.50;;;25.95
73673;BMP280;61972;19.480;-99.240;2023-05-19T11:30:56;77962.13;;;25.95
73673;BMP280;61972;19.480;-99.240;2023-05-19T11:33:24;77955.19;;;25.93
73673;BMP280;61972;19.480;-99.240;2023-05-19T11:35:56;77949.41;;;25.93
73673;BMP280;61972;19.480;-99.240;2023-05-19T11:38:23;77960.44;;;25.93
73673;BMP280;61972;19.480;-99.240;2023-05-19T11:40:52;77961.41;;;25.92
73673;BMP280;61972;19.480;-99.240;2023-05-19T11:43:22;77976.69;;;25.94
73673;BMP280;61972;19.480;-99.240;2023-05-19T11:45:48;77970.34;;;25.93
73673;BMP280;61972;19.480;-99.240;2023-05-19T11:48:14;77971.88;;;25.92
73673;BMP280;61972;19.480;-99.240;2023-05-19T11:50:41;77968.13;;;25.91
73673;BMP280;61972;19.480;-99.240;2023-05-19T11:53:14;77970.75;;;25.91
73673;BMP280;61972;19.480;-99.240;2023-05-19T11:55:45;77978.03;;;25.90
73673;BMP280;61972;19.480;-99.240;2023-05-19T11:58:11;77981.59;;;25.89
73673;BMP280;61972;19.480;-99.240;2023-05-19T12:00:39;77977.47;;;25.90
73673;BMP280;61972;19.480;-99.240;2023-05-19T12:03:06;77985.72;;;25.88
73673;BMP280;61972;19.480;-99.240;2023-05-19T12:05:35;77988.34;;;25.88
73673;BMP280;61972;19.480;-99.240;2023-05-19T12:08:02;77995.06;;;25.87
73673;BMP280;61972;19.480;-99.240;2023-05-19T12:10:30;78000.31;;;25.87
73673;BMP280;61972;19.480;-99.240;2023-05-19T12:12:58;77992.84;;;25.84
73673;BMP280;61972;19.480;-99.240;2023-05-19T12:15:25;77995.44;;;25.84
73673;BMP280;61972;19.480;-99.240;2023-05-19T12:17:59;77996.94;;;25.83
73673;BMP280;61972;19.480;-99.240;2023-05-19T12:20:26;77999.94;;;25.81
73673;BMP280;61972;19.480;-99.240;2023-05-19T12:22:56;78004.63;;;25.81
73673;BMP280;61972;19.480;-99.240;2023-05-19T12:25:23;78008.75;;;25.80
73673;BMP280;61972;19.480;-99.240;2023-05-19T12:27:49;77997.69;;;25.79
73673;BMP280;61972;19.480;-99.240;2023-05-19T12:30:17;78011.75;;;25.78
73673;BMP280;61972;19.480;-99.240;2023-05-19T12:32:49;78008.38;;;25.75
73673;BMP280;61972;19.480;-99.240;2023-05-19T12:35:18;78014.19;;;25.75
73673;BMP280;61972;19.480;-99.240;2023-05-19T12:37:45;78011.94;;;25.73
73673;BMP280;61972;19.480;-99.240;2023-05-19T12:40:16;78016.63;;;25.73
73673;BMP280;61972;19.480;-99.240;2023-05-19T12:42:45;78020.75;;;25.72
73673;BMP280;61972;19.480;-99.240;2023-05-19T12:45:13;78024.28;;;25.70
73673;BMP280;61972;19.480;-99.240;2023-05-19T12:47:39;78030.66;;;25.71
73673;BMP280;61972;19.480;-99.240;2023-05-19T12:50:07;78029.53;;;25.70
73673;BMP280;61972;19.480;-99.240;2023-05-19T12:55:06;78024.69;;;25.68
73673;BMP280;61972;19.480;-99.240;2023-05-19T12:57:40;78034.03;;;25.67
73673;BMP280;61972;19.480;-99.240;2023-05-19T13:00:17;78029.16;;;25.65
73673;BMP280;61972;19.480;-99.240;2023-05-19T13:05:25;78034.78;;;25.63
73673;BMP280;61972;19.480;-99.240;2023-05-19T13:08:04;78037.41;;;25.63
73673;BMP280;61972;19.480;-99.240;2023-05-19T13:10:36;78037.41;;;25.63
73673;BMP280;61972;19.480;-99.240;2023-05-19T13:13:03;78042.63;;;25.63
73673;BMP280;61972;19.480;-99.240;2023-05-19T13:15:31;78041.50;;;25.62
73673;BMP280;61972;19.480;-99.240;2023-05-19T13:18:02;78040.94;;;25.61
73673;BMP280;61972;19.480;-99.240;2023-05-19T13:20:31;78043.56;;;25.61
73673;BMP280;61972;19.480;-99.240;2023-05-19T13:22:57;78045.63;;;25.61
73673;BMP280;61972;19.480;-99.240;2023-05-19T13:25:24;78052.38;;;25.60
73673;BMP280;61972;19.480;-99.240;2023-05-19T13:27:51;78049.75;;;25.60
73673;BMP280;61972;19.480;-99.240;2023-05-19T13:30:18;78053.84;;;25.59
73673;BMP280;61972;19.480;-99.240;2023-05-19T13:32:45;78050.69;;;25.58
73673;BMP280;61972;19.480;-99.240;2023-05-19T13:35:12;78046.97;;;25.57
73673;BMP280;61972;19.480;-99.240;2023-05-19T13:37:40;78052.19;;;25.57
73673;BMP280;61972;19.480;-99.240;2023-05-19T13:40:07;78056.84;;;25.57
73673;BMP280;61972;19.480;-99.240;2023-05-19T13:42:34;78047.88;;;25.56
73673;BMP280;61972;19.480;-99.240;2023-05-19T13:45:00;78049.38;;;25.55
73673;BMP280;61972;19.480;-99.240;2023-05-19T13:47:28;78058.72;;;25.54
73673;BMP280;61972;19.480;-99.240;2023-05-19T13:49:54;78048.25;;;25.54
73673;BMP280;61972;19.480;-99.240;2023-05-19T13:52:21;78051.81;;;25.52
73673;BMP280;61972;19.480;-99.240;2023-05-19T13:54:48;78056.50;;;25.52
73673;BMP280;61972;19.480;-99.240;2023-05-19T13:57:15;78055.38;;;25.51
73673;BMP280;61972;19.480;-99.240;2023-05-19T13:59:41;78054.25;;;25.50
73673;BMP280;61972;19.480;-99.240;2023-05-19T14:02:08;78043.78;;;25.50
73673;BMP280;61972;19.480;-99.240;2023-05-19T14:04:38;78058.38;;;25.49
73673;BMP280;61972;19.480;-99.240;2023-05-19T14:07:05;78057.25;;;25.47
73673;BMP280;61972;19.480;-99.240;2023-05-19T14:09:32;78057.25;;;25.47
73673;BMP280;61972;19.480;-99.240;2023-05-19T14:11:58;78056.69;;;25.47
73673;BMP280;61972;19.480;-99.240;2023-05-19T14:14:24;78064.53;;;25.47
73673;BMP280;61972;19.480;-99.240;2023-05-19T14:16:50;78060.25;;;25.45
73673;BMP280;61972;19.480;-99.240;2023-05-19T14:19:17;78062.31;;;25.45
73673;BMP280;61972;19.480;-99.240;2023-05-19T14:21:43;78063.78;;;25.44
73673;BMP280;61972;19.480;-99.240;2023-05-19T14:24:09;78073.72;;;25.43
73673;BMP280;61972;19.480;-99.240;2023-05-19T14:26:35;78073.16;;;25.43
73673;BMP280;61972;19.480;-99.240;2023-05-19T14:29:02;78078.94;;;25.43
73673;BMP280;61972;19.480;-99.240;2023-05-19T14:31:28;78077.81;;;25.42